sensor_id;sensor_type;location;lat;lon;timestamp;pressure;altitude;pressure_sealevel;temperature;humidity
47082;BME280;33066;49.296;14.470;2024-01-15T00:01:00;95392.20;;;5.16;32.45
47082;BME280;33066;49.296;14.470;2024-01-15T00:03:25;95383.83;;;5.20;32.31
47082;BME280;33066;49.296;14.470;2024-01-15T00:05:51;95380.34;;;5.20;32.29
47082;BME280;33066;49.296;14.470;2024-01-15T00:08:18;95382.39;;;5.18;32.34
47082;BME280;33066;49.296;14.470;2024-01-15T00:10:42;95375.63;;;5.19;32.36
47082;BME280;33066;49.296;14.470;2024-01-15T00:13:07;95372.01;;;5.11;32.31
47082;BME280;33066;49.296;14.470;2024-01-15T00:15:33;95374.78;;;5.07;32.32
47082;BME280;33066;49.296;14.470;2024-01-15T00:17:58;95373.04;;;5.00;32.30
47082;BME280;33066;49.296;14.470;2024-01-15T00:20:24;95376.46;;;5.22;32.39
47082;BME280;33066;49.296;14.470;2024-01-15T00:22:50;95374.68;;;5.00;32.51
47082;BME280;33066;49.296;14.470;2024-01-15T00:25:15;95375.11;;;5.19;32.50
47082;BME280;33066;49.296;14.470;2024-01-15T00:27:40;95382.67;;;5.14;32.37
47082;BME280;33066;49.296;14.470;2024-01-15T00:30:07;95382.26;;;5.07;32.40
47082;BME280;33066;49.296;14.470;2024-01-15T00:32:33;95381.68;;;5.21;32.47
47082;BME280;33066;49.296;14.470;2024-01-15T00:34:58;95379.65;;;4.93;32.57
47082;BME280;33066;49.296;14.470;2024-01-15T00:37:23;95376.84;;;5.13;32.61
47082;BME280;33066;49.296;14.470;2024-01-15T00:39:49;95373.97;;;5.11;32.63
47082;BME280;33066;49.296;14.470;2024-01-15T00:42:14;95368.05;;;4.82;32.63
47082;BME280;33066;49.296;14.470;2024-01-15T00:44:40;95365.19;;;5.08;32.50
47082;BME280;33066;49.296;14.470;2024-01-15T00:47:06;95367.36;;;5.04;32.48
47082;BME280;33066;49.296;14.470;2024-01-15T00:49:31;95369.78;;;5.03;32.52
47082;BME280;33066;49.296;14.470;2024-01-15T00:51:56;95363.71;;;5.04;32.49
47082;BME280;33066;49.296;14.470;2024-01-15T00:54:22;95358.95;;;5.06;32.35
47082;BME280;33066;49.296;14.470;2024-01-15T00:56:48;95349.86;;;5.02;32.41
47082;BME280;33066;49.296;14.470;2024-01-15T00:59:13;95345.58;;;5.01;32.42
47082;BME280;33066;49.296;14.470;2024-01-15T01:01:38;95343.92;;;4.75;32.41
47082;BME280;33066;49.296;14.470;2024-01-15T01:04:04;95340.07;;;4.94;32.37
47082;BME280;33066;49.296;14.470;2024-01-15T01:06:30;95328.54;;;4.90;32.47
47082;BME280;33066;49.296;14.470;2024-01-15T01:08:54;95327.98;;;4.90;32.47
47082;BME280;33066;49.296;14.470;2024-01-15T01:11:20;95324.45;;;4.92;32.37
47082;BME280;33066;49.296;14.470;2024-01-15T01:13:46;95321.55;;;4.89;32.32
47082;BME280;33066;49.296;14.470;2024-01-15T01:16:12;95315.98;;;4.61;32.31
47082;BME280;33066;49.296;14.470;2024-01-15T01:18:36;95316.74;;;4.69;32.20
47082;BME280;33066;49.296;14.470;2024-01-15T01:21:04;95319.39;;;4.71;32.52
47082;BME280;33066;49.296;14.470;2024-01-15T01:23:28;95321.62;;;4.55;32.57
47082;BME280;33066;49.296;14.470;2024-01-15T01:25:53;95323.30;;;4.17;32.77
47082;BME280;33066;49.296;14.470;2024-01-15T01:28:19;95329.29;;;4.08;32.86
47082;BME280;33066;49.296;14.470;2024-01-15T01:30:44;95335.86;;;4.22;33.04
47082;BME280;33066;49.296;14.470;2024-01-15T01:33:12;95336.14;;;3.99;33.02
47082;BME280;33066;49.296;14.470;2024-01-15T01:35:36;95330.24;;;4.18;32.98
47082;BME280;33066;49.296;14.470;2024-01-15T01:38:01;95329.39;;;4.12;32.93
47082;BME280;33066;49.296;14.470;2024-01-15T01:40:26;95330.97;;;4.11;32.94
47082;BME280;33066;49.296;14.470;2024-01-15T01:42:51;95327.43;;;4.15;32.87
47082;BME280;33066;49.296;14.470;2024-01-15T01:45:17;95325.10;;;4.13;32.81
47082;BME280;33066;49.296;14.470;2024-01-15T01:47:43;95319.00;;;3.82;32.88
47082;BME280;33066;49.296;14.470;2024-01-15T01:50:08;95311.61;;;3.86;32.94
47082;BME280;33066;49.296;14.470;2024-01-15T01:52:33;95305.68;;;3.88;33.14
47082;BME280;33066;49.296;14.470;2024-01-15T01:55:00;95307.81;;;3.63;33.42
47082;BME280;33066;49.296;14.470;2024-01-15T01:57:24;95303.65;;;3.22;33.78
47082;BME280;33066;49.296;14.470;2024-01-15T01:59:51;95304.23;;;3.32;33.97
47082;BME280;33066;49.296;14.470;2024-01-15T02:02:17;95310.17;;;3.56;34.06
47082;BME280;33066;49.296;14.470;2024-01-15T02:04:41;95309.63;;;3.59;34.09
47082;BME280;33066;49.296;14.470;2024-01-15T02:07:06;95306.50;;;3.39;34.32
47082;BME280;33066;49.296;14.470;2024-01-15T02:09:31;95305.38;;;3.40;34.35
47082;BME280;33066;49.296;14.470;2024-01-15T02:11:58;95305.54;;;3.45;34.23
47082;BME280;33066;49.296;14.470;2024-01-15T02:14:22;95308.36;;;3.64;34.08
47082;BME280;33066;49.296;14.470;2024-01-15T02:16:48;95313.19;;;3.53;33.93
47082;BME280;33066;49.296;14.470;2024-01-15T02:19:15;95313.87;;;3.66;33.77
47082;BME280;33066;49.296;14.470;2024-01-15T02:21:39;95318.17;;;3.76;33.64
47082;BME280;33066;49.296;14.470;2024-01-15T02:24:05;95325.12;;;3.91;33.46
47082;BME280;33066;49.296;14.470;2024-01-15T02:26:31;95330.55;;;4.36;33.16
47082;BME280;33066;49.296;14.470;2024-01-15T02:28:55;95328.07;;;3.94;32.80
47082;BME280;33066;49.296;14.470;2024-01-15T02:31:21;95328.72;;;4.14;32.58
47082;BME280;33066;49.296;14.470;2024-01-15T02:33:46;95326.95;;;4.18;32.78
47082;BME280;33066;49.296;14.470;2024-01-15T02:36:12;95327.66;;;4.52;32.70
47082;BME280;33066;49.296;14.470;2024-01-15T02:38:37;95325.14;;;4.09;32.48
47082;BME280;33066;49.296;14.470;2024-01-15T02:41:04;95332.74;;;4.40;32.34
47082;BME280;33066;49.296;14.470;2024-01-15T02:43:28;95333.67;;;4.19;32.19
47082;BME280;33066;49.296;14.470;2024-01-15T02:45:54;95331.62;;;4.10;32.03
47082;BME280;33066;49.296;14.470;2024-01-15T02:48:19;95330.54;;;4.25;32.18
47082;BME280;33066;49.296;14.470;2024-01-15T02:50:44;95323.12;;;3.81;32.36
47082;BME280;33066;49.296;14.470;2024-01-15T02:53:10;95329.41;;;3.89;32.56
47082;BME280;33066;49.296;14.470;2024-01-15T02:55:35;95329.23;;;3.83;32.75
47082;BME280;33066;49.296;14.470;2024-01-15T02:58:01;95326.56;;;4.01;32.92
47082;BME280;33066;49.296;14.470;2024-01-15T03:00:26;95327.32;;;4.07;32.81
47082;BME280;33066;49.296;14.470;2024-01-15T03:02:51;95332.25;;;4.11;32.86
47082;BME280;33066;49.296;14.470;2024-01-15T03:05:17;95330.55;;;4.05;32.79
47082;BME280;33066;49.296;14.470;2024-01-15T03:07:43;95335.36;;;4.17;32.63
47082;BME280;33066;49.296;14.470;2024-01-15T03:10:09;95339.59;;;4.18;32.54
47082;BME280;33066;49.296;14.470;2024-01-15T03:12:34;95337.08;;;4.09;32.41
47082;BME280;33066;49.296;14.470;2024-01-15T03:14:59;95330.35;;;4.35;32.30
47082;BME280;33066;49.296;14.470;2024-01-15T03:17:27;95331.18;;;4.44;32.21
47082;BME280;33066;49.296;14.470;2024-01-15T03:19:50;95325.10;;;4.21;32.12
47082;BME280;33066;49.296;14.470;2024-01-15T03:22:16;95316.17;;;4.19;32.07
47082;BME280;33066;49.296;14.470;2024-01-15T03:24:41;95312.95;;;4.28;32.07
47082;BME280;33066;49.296;14.470;2024-01-15T03:27:07;95297.54;;;4.31;31.99
47082;BME280;33066;49.296;14.470;2024-01-15T03:29:33;95291.48;;;4.26;32.02
47082;BME280;33066;49.296;14.470;2024-01-15T03:31:58;95296.06;;;3.95;32.16
47082;BME280;33066;49.296;14.470;2024-01-15T03:34:25;95302.53;;;3.79;32.23
47082;BME280;33066;49.296;14.470;2024-01-15T03:36:51;95306.86;;;4.12;32.38
47082;BME280;33066;49.296;14.470;2024-01-15T03:39:14;95309.61;;;3.69;32.27
47082;BME280;33066;49.296;14.470;2024-01-15T03:41:40;95302.03;;;3.81;32.30
47082;BME280;33066;49.296;14.470;2024-01-15T03:44:05;95304.56;;;3.57;32.33
47082;BME280;33066;49.296;14.470;2024-01-15T03:46:31;95313.64;;;4.15;32.19
47082;BME280;33066;49.296;14.470;2024-01-15T03:48:56;95309.44;;;3.71;32.20
47082;BME280;33066;49.296;14.470;2024-01-15T03:51:22;95308.47;;;3.95;32.09
47082;BME280;33066;49.296;14.470;2024-01-15T03:53:47;95301.14;;;3.95;32.20
47082;BME280;33066;49.296;14.470;2024-01-15T03:56:13;95288.29;;;3.54;32.30
47082;BME280;33066;49.296;14.470;2024-01-15T03:58:39;95287.16;;;3.68;32.63
47082;BME280;33066;49.296;14.470;2024-01-15T04:01:08;95292.01;;;3.58;32.76
47082;BME280;33066;49.296;14.470;2024-01-15T04:03:31;95303.65;;;3.74;32.73
47082;BME280;33066;49.296;14.470;2024-01-15T04:05:54;95298.37;;;3.88;32.48
47082;BME280;33066;49.296;14.470;2024-01-15T04:08:20;95291.06;;;3.80;32.37
47082;BME280;33066;49.296;14.470;2024-01-15T04:13:00;95284.06;;;4.46;31.18
47082;BME280;33066;49.296;14.470;2024-01-15T04:15:27;95279.22;;;4.80;31.03
47082;BME280;33066;49.296;14.470;2024-01-15T04:17:51;95270.71;;;4.48;31.25
47082;BME280;33066;49.296;14.470;2024-01-15T04:20:16;95268.04;;;4.68;31.44
47082;BME280;33066;49.296;14.470;2024-01-15T04:22:41;95263.10;;;4.20;31.54
47082;BME280;33066;49.296;14.470;2024-01-15T04:25:07;95262.87;;;4.25;31.76
47082;BME280;33066;49.296;14.470;2024-01-15T04:27:32;95258.10;;;4.39;32.01
47082;BME280;33066;49.296;14.470;2024-01-15T04:29:57;95258.49;;;4.07;32.12
47082;BME280;33066;49.296;14.470;2024-01-15T04:32:23;95257.14;;;3.98;32.34
47082;BME280;33066;49.296;14.470;2024-01-15T04:34:48;95258.97;;;3.75;32.54
47082;BME280;33066;49.296;14.470;2024-01-15T04:37:13;95265.65;;;4.29;32.45
47082;BME280;33066;49.296;14.470;2024-01-15T04:39:39;95259.76;;;3.76;32.56
47082;BME280;33066;49.296;14.470;2024-01-15T04:42:04;95259.43;;;4.35;32.57
47082;BME280;33066;49.296;14.470;2024-01-15T04:44:31;95263.29;;;4.17;32.49
47082;BME280;33066;49.296;14.470;2024-01-15T04:46:54;95265.86;;;4.15;32.58
47082;BME280;33066;49.296;14.470;2024-01-15T04:49:20;95265.28;;;4.13;32.67
47082;BME280;33066;49.296;14.470;2024-01-15T04:51:46;95263.02;;;4.09;32.79
47082;BME280;33066;49.296;14.470;2024-01-15T04:54:10;95264.72;;;4.09;32.84
47082;BME280;33066;49.296;14.470;2024-01-15T04:56:37;95266.15;;;3.82;32.91
47082;BME280;33066;49.296;14.470;2024-01-15T04:59:00;95274.43;;;4.30;32.93
47082;BME280;33066;49.296;14.470;2024-01-15T05:01:31;95277.88;;;3.93;33.17
47082;BME280;33066;49.296;14.470;2024-01-15T05:03:51;95277.28;;;4.16;33.16
47082;BME280;33066;49.296;14.470;2024-01-15T05:06:17;95286.96;;;4.06;33.45
47082;BME280;33066;49.296;14.470;2024-01-15T05:08:42;95288.19;;;3.78;33.42
47082;BME280;33066;49.296;14.470;2024-01-15T05:11:09;95283.16;;;3.60;33.73
47082;BME280;33066;49.296;14.470;2024-01-15T05:13:33;95294.40;;;3.77;33.93
47082;BME280;33066;49.296;14.470;2024-01-15T05:16:00;95301.64;;;3.67;33.97
47082;BME280;33066;49.296;14.470;2024-01-15T05:18:25;95295.81;;;3.73;33.94
47082;BME280;33066;49.296;14.470;2024-01-15T05:20:50;95308.68;;;3.88;33.91
47082;BME280;33066;49.296;14.470;2024-01-15T05:23:15;95316.56;;;4.05;33.85
47082;BME280;33066;49.296;14.470;2024-01-15T05:25:40;95318.05;;;3.99;33.98
47082;BME280;33066;49.296;14.470;2024-01-15T05:28:06;95315.57;;;3.92;34.16
47082;BME280;33066;49.296;14.470;2024-01-15T05:30:32;95328.40;;;4.00;34.19
47082;BME280;33066;49.296;14.470;2024-01-15T05:32:57;95327.36;;;3.86;34.20
47082;BME280;33066;49.296;14.470;2024-01-15T05:35:24;95329.64;;;3.96;34.32
47082;BME280;33066;49.296;14.470;2024-01-15T05:37:49;95329.72;;;3.90;34.56
47082;BME280;33066;49.296;14.470;2024-01-15T05:40:14;95323.98;;;4.26;34.54
47082;BME280;33066;49.296;14.470;2024-01-15T05:42:39;95322.31;;;3.58;34.82
47082;BME280;33066;49.296;14.470;2024-01-15T05:45:05;95325.09;;;3.57;35.19
47082;BME280;33066;49.296;14.470;2024-01-15T05:47:29;95332.33;;;3.67;35.32
47082;BME280;33066;49.296;14.470;2024-01-15T05:49:55;95328.88;;;3.53;35.85
47082;BME280;33066;49.296;14.470;2024-01-15T05:52:20;95325.76;;;3.58;35.51
47082;BME280;33066;49.296;14.470;2024-01-15T05:54:48;95325.54;;;3.72;35.45
47082;BME280;33066;49.296;14.470;2024-01-15T05:57:11;95320.22;;;3.39;35.73
47082;BME280;33066;49.296;14.470;2024-01-15T05:59:36;95319.90;;;3.58;36.04
47082;BME280;33066;49.296;14.470;2024-01-15T06:02:03;95310.33;;;3.30;35.99
47082;BME280;33066;49.296;14.470;2024-01-15T06:04:27;95307.56;;;3.46;35.94
47082;BME280;33066;49.296;14.470;2024-01-15T06:06:55;95317.15;;;3.33;36.21
47082;BME280;33066;49.296;14.470;2024-01-15T06:09:18;95325.43;;;3.55;36.07
47082;BME280;33066;49.296;14.470;2024-01-15T06:11:44;95322.11;;;3.57;36.06
47082;BME280;33066;49.296;14.470;2024-01-15T06:14:09;95317.25;;;3.64;35.79
47082;BME280;33066;49.296;14.470;2024-01-15T06:16:35;95323.44;;;3.51;36.03
47082;BME280;33066;49.296;14.470;2024-01-15T06:19:02;95317.27;;;3.67;35.94
47082;BME280;33066;49.296;14.470;2024-01-15T06:21:26;95316.19;;;3.82;35.73
47082;BME280;33066;49.296;14.470;2024-01-15T06:23:51;95323.24;;;3.76;35.59
47082;BME280;33066;49.296;14.470;2024-01-15T06:26:17;95316.11;;;3.63;35.37
47082;BME280;33066;49.296;14.470;2024-01-15T06:28:43;95318.07;;;3.92;35.31
47082;BME280;33066;49.296;14.470;2024-01-15T06:31:08;95318.88;;;3.89;35.31
47082;BME280;33066;49.296;14.470;2024-01-15T06:33:34;95313.44;;;3.89;35.58
47082;BME280;33066;49.296;14.470;2024-01-15T06:35:59;95313.10;;;3.77;35.58
47082;BME280;33066;49.296;14.470;2024-01-15T06:38:25;95312.12;;;3.74;35.44
47082;BME280;33066;49.296;14.470;2024-01-15T06:40:50;95321.05;;;4.02;35.48
47082;BME280;33066;49.296;14.470;2024-01-15T06:43:16;95327.97;;;3.77;35.48
47082;BME280;33066;49.296;14.470;2024-01-15T06:45:41;95322.05;;;3.97;35.57
47082;BME280;33066;49.296;14.470;2024-01-15T06:48:07;95322.21;;;3.80;35.48
47082;BME280;33066;49.296;14.470;2024-01-15T06:50:32;95317.19;;;4.12;35.47
47082;BME280;33066;49.296;14.470;2024-01-15T06:52:58;95315.89;;;4.09;35.48
47082;BME280;33066;49.296;14.470;2024-01-15T06:55:23;95318.81;;;3.96;35.62
47082;BME280;33066;49.296;14.470;2024-01-15T06:57:49;95329.13;;;3.93;35.58
47082;BME280;33066;49.296;14.470;2024-01-15T07:00:15;95327.96;;;4.08;35.32
47082;BME280;33066;49.296;14.470;2024-01-15T07:02:41;95333.23;;;3.95;35.37
47082;BME280;33066;49.296;14.470;2024-01-15T07:05:07;95335.95;;;4.05;35.21
47082;BME280;33066;49.296;14.470;2024-01-15T07:07:31;95344.86;;;4.03;35.10
47082;BME280;33066;49.296;14.470;2024-01-15T07:09:55;95344.33;;;4.06;35.24
47082;BME280;33066;49.296;14.470;2024-01-15T07:12:21;95347.24;;;3.98;35.22
47082;BME280;33066;49.296;14.470;2024-01-15T07:14:46;95347.80;;;4.09;35.15
47082;BME280;33066;49.296;14.470;2024-01-15T07:17:11;95350.02;;;4.20;34.98
47082;BME280;33066;49.296;14.470;2024-01-15T07:19:37;95347.45;;;4.63;34.73
47082;BME280;33066;49.296;14.470;2024-01-15T07:22:03;95354.81;;;4.32;34.67
47082;BME280;33066;49.296;14.470;2024-01-15T07:24:28;95346.95;;;4.57;34.49
47082;BME280;33066;49.296;14.470;2024-01-15T07:26:56;95349.78;;;4.75;34.24
47082;BME280;33066;49.296;14.470;2024-01-15T07:29:19;95350.47;;;4.62;34.21
47082;BME280;33066;49.296;14.470;2024-01-15T07:31:49;95351.70;;;4.74;34.10
47082;BME280;33066;49.296;14.470;2024-01-15T07:34:10;95344.16;;;4.87;34.01
47082;BME280;33066;49.296;14.470;2024-01-15T07:36:36;95351.34;;;5.06;33.74
47082;BME280;33066;49.296;14.470;2024-01-15T07:39:01;95347.29;;;5.25;33.65
47082;BME280;33066;49.296;14.470;2024-01-15T07:41:26;95348.65;;;5.24;33.34
47082;BME280;33066;49.296;14.470;2024-01-15T07:43:51;95348.35;;;5.18;33.40
47082;BME280;33066;49.296;14.470;2024-01-15T07:46:17;95348.02;;;5.29;33.33
47082;BME280;33066;49.296;14.470;2024-01-15T07:48:42;95348.49;;;4.95;33.23
47082;BME280;33066;49.296;14.470;2024-01-15T07:51:07;95352.41;;;5.43;33.20
47082;BME280;33066;49.296;14.470;2024-01-15T07:53:35;95350.26;;;4.97;33.03
47082;BME280;33066;49.296;14.470;2024-01-15T07:55:59;95354.18;;;5.15;33.08
47082;BME280;33066;49.296;14.470;2024-01-15T07:58:24;95351.28;;;5.44;33.29
47082;BME280;33066;49.296;14.470;2024-01-15T08:00:49;95348.61;;;5.03;33.23
47082;BME280;33066;49.296;14.470;2024-01-15T08:03:14;95351.23;;;4.91;33.27
47082;BME280;33066;49.296;14.470;2024-01-15T08:05:41;95349.77;;;4.86;33.48
47082;BME280;33066;49.296;14.470;2024-01-15T08:08:07;95346.32;;;5.09;33.53
47082;BME280;33066;49.296;14.470;2024-01-15T08:10:31;95348.82;;;4.72;33.58
47082;BME280;33066;49.296;14.470;2024-01-15T08:12:57;95347.92;;;5.17;33.61
47082;BME280;33066;49.296;14.470;2024-01-15T08:15:22;95350.67;;;5.04;33.41
47082;BME280;33066;49.296;14.470;2024-01-15T08:17:47;95346.99;;;5.11;33.46
47082;BME280;33066;49.296;14.470;2024-01-15T08:20:13;95343.80;;;5.06;33.55
47082;BME280;33066;49.296;14.470;2024-01-15T08:22:39;95339.08;;;5.07;33.61
47082;BME280;33066;49.296;14.470;2024-01-15T08:25:05;95339.03;;;5.04;33.65
47082;BME280;33066;49.296;14.470;2024-01-15T08:27:29;95342.14;;;4.99;33.68
47082;BME280;33066;49.296;14.470;2024-01-15T08:29:55;95340.89;;;4.74;33.61
47082;BME280;33066;49.296;14.470;2024-01-15T08:32:21;95346.27;;;4.82;33.79
47082;BME280;33066;49.296;14.470;2024-01-15T08:34:46;95345.58;;;4.80;33.86
47082;BME280;33066;49.296;14.470;2024-01-15T08:37:12;95345.74;;;4.90;33.99
47082;BME280;33066;49.296;14.470;2024-01-15T08:39:38;95344.58;;;4.68;34.04
47082;BME280;33066;49.296;14.470;2024-01-15T08:42:04;95333.93;;;4.88;34.11
47082;BME280;33066;49.296;14.470;2024-01-15T08:44:29;95323.71;;;4.85;34.06
47082;BME280;33066;49.296;14.470;2024-01-15T08:46:54;95325.90;;;4.82;34.12
47082;BME280;33066;49.296;14.470;2024-01-15T08:49:20;95337.37;;;5.04;33.80
47082;BME280;33066;49.296;14.470;2024-01-15T08:51:45;95325.72;;;5.04;33.93
47082;BME280;33066;49.296;14.470;2024-01-15T08:54:11;95330.85;;;5.16;33.78
47082;BME280;33066;49.296;14.470;2024-01-15T08:56:36;95326.72;;;4.88;33.83
47082;BME280;33066;49.296;14.470;2024-01-15T08:59:02;95323.58;;;5.06;33.88
47082;BME280;33066;49.296;14.470;2024-01-15T09:01:28;95331.24;;;5.25;33.61
47082;BME280;33066;49.296;14.470;2024-01-15T09:03:53;95330.45;;;4.94;33.77
47082;BME280;33066;49.296;14.470;2024-01-15T09:06:18;95334.13;;;4.64;33.91
47082;BME280;33066;49.296;14.470;2024-01-15T09:08:45;95329.41;;;4.85;33.71
47082;BME280;33066;49.296;14.470;2024-01-15T09:11:11;95328.95;;;4.82;33.88
47082;BME280;33066;49.296;14.470;2024-01-15T09:13:34;95332.79;;;4.80;33.92
47082;BME280;33066;49.296;14.470;2024-01-15T09:16:00;95331.94;;;4.67;34.06
47082;BME280;33066;49.296;14.470;2024-01-15T09:18:25;95337.12;;;5.08;33.91
47082;BME280;33066;49.296;14.470;2024-01-15T09:20:51;95339.92;;;5.43;33.67
47082;BME280;33066;49.296;14.470;2024-01-15T09:23:16;95342.52;;;5.19;33.47
47082;BME280;33066;49.296;14.470;2024-01-15T09:25:42;95345.46;;;5.34;33.30
47082;BME280;33066;49.296;14.470;2024-01-15T09:28:07;95339.17;;;5.55;33.31
47082;BME280;33066;49.296;14.470;2024-01-15T09:30:32;95338.30;;;5.43;32.99
47082;BME280;33066;49.296;14.470;2024-01-15T09:32:57;95331.08;;;6.01;32.98
47082;BME280;33066;49.296;14.470;2024-01-15T09:35:23;95325.19;;;5.55;32.88
47082;BME280;33066;49.296;14.470;2024-01-15T09:37:49;95321.22;;;5.63;33.04
47082;BME280;33066;49.296;14.470;2024-01-15T09:40:15;95318.77;;;5.65;32.95
47082;BME280;33066;49.296;14.470;2024-01-15T09:42:40;95315.64;;;5.94;33.02
47082;BME280;33066;49.296;14.470;2024-01-15T09:45:06;95313.59;;;5.74;32.72
47082;BME280;33066;49.296;14.470;2024-01-15T09:47:33;95311.84;;;5.86;32.65
47082;BME280;33066;49.296;14.470;2024-01-15T09:49:56;95310.64;;;5.76;32.90
47082;BME280;33066;49.296;14.470;2024-01-15T09:52:22;95312.75;;;5.75;32.77
47082;BME280;33066;49.296;14.470;2024-01-15T09:54:49;95307.55;;;5.47;33.10
47082;BME280;33066;49.296;14.470;2024-01-15T09:57:13;95308.83;;;5.61;33.09
47082;BME280;33066;49.296;14.470;2024-01-15T09:59:38;95306.96;;;5.77;33.05
47082;BME280;33066;49.296;14.470;2024-01-15T10:02:07;95301.61;;;5.53;33.28
47082;BME280;33066;49.296;14.470;2024-01-15T10:04:28;95302.60;;;5.83;33.13
47082;BME280;33066;49.296;14.470;2024-01-15T10:06:54;95302.02;;;5.60;33.38
47082;BME280;33066;49.296;14.470;2024-01-15T10:09:19;95302.02;;;5.80;33.10
47082;BME280;33066;49.296;14.470;2024-01-15T10:11:46;95296.35;;;5.94;33.11
47082;BME280;33066;49.296;14.470;2024-01-15T10:14:11;95296.31;;;6.07;32.64
47082;BME280;33066;49.296;14.470;2024-01-15T10:16:37;95291.94;;;6.11;32.56
47082;BME280;33066;49.296;14.470;2024-01-15T10:19:02;95298.41;;;6.02;32.81
47082;BME280;33066;49.296;14.470;2024-01-15T10:21:27;95297.22;;;5.90;32.94
47082;BME280;33066;49.296;14.470;2024-01-15T10:23:53;95298.51;;;6.12;32.86
47082;BME280;33066;49.296;14.470;2024-01-15T10:26:18;95298.07;;;5.92;32.80
47082;BME280;33066;49.296;14.470;2024-01-15T10:28:43;95293.68;;;6.09;32.62
47082;BME280;33066;49.296;14.470;2024-01-15T10:31:09;95298.13;;;5.33;33.38
47082;BME280;33066;49.296;14.470;2024-01-15T10:33:34;95291.81;;;5.51;33.40
47082;BME280;33066;49.296;14.470;2024-01-15T10:36:00;95286.23;;;5.53;33.32
47082;BME280;33066;49.296;14.470;2024-01-15T10:38:27;95289.71;;;5.43;33.40
47082;BME280;33066;49.296;14.470;2024-01-15T10:40:51;95290.34;;;5.64;33.19
47082;BME280;33066;49.296;14.470;2024-01-15T10:43:17;95278.80;;;5.20;33.19
47082;BME280;33066;49.296;14.470;2024-01-15T10:45:43;95283.86;;;5.42;33.55
47082;BME280;33066;49.296;14.470;2024-01-15T10:48:08;95296.11;;;5.27;33.56
47082;BME280;33066;49.296;14.470;2024-01-15T10:50:34;95277.59;;;5.36;33.54
47082;BME280;33066;49.296;14.470;2024-01-15T10:52:59;95284.80;;;5.34;33.45
47082;BME280;33066;49.296;14.470;2024-01-15T10:55:25;95281.71;;;5.13;33.60
47082;BME280;33066;49.296;14.470;2024-01-15T10:57:50;95279.41;;;4.91;33.65
47082;BME280;33066;49.296;14.470;2024-01-15T11:00:15;95288.41;;;5.30;33.87
47082;BME280;33066;49.296;14.470;2024-01-15T11:02:41;95279.03;;;5.51;33.89
47082;BME280;33066;49.296;14.470;2024-01-15T11:05:06;95277.27;;;5.49;33.71
47082;BME280;33066;49.296;14.470;2024-01-15T11:07:31;95268.59;;;5.89;33.29
47082;BME280;33066;49.296;14.470;2024-01-15T11:09:57;95270.15;;;6.14;32.67
47082;BME280;33066;49.296;14.470;2024-01-15T11:12:24;95276.32;;;5.68;33.07
47082;BME280;33066;49.296;14.470;2024-01-15T11:14:49;95273.48;;;5.89;32.83
47082;BME280;33066;49.296;14.470;2024-01-15T11:17:16;95267.53;;;5.74;33.29
47082;BME280;33066;49.296;14.470;2024-01-15T11:19:43;95268.88;;;5.71;32.90
47082;BME280;33066;49.296;14.470;2024-01-15T11:22:04;95272.06;;;5.75;33.01
47082;BME280;33066;49.296;14.470;2024-01-15T11:24:38;95273.69;;;6.05;32.93
47082;BME280;33066;49.296;14.470;2024-01-15T11:26:55;95264.44;;;5.98;32.68
47082;BME280;33066;49.296;14.470;2024-01-15T11:29:30;95263.75;;;6.17;32.69
47082;BME280;33066;49.296;14.470;2024-01-15T11:31:58;95257.24;;;6.49;32.35
47082;BME280;33066;49.296;14.470;2024-01-15T11:34:13;95254.66;;;7.32;31.58
47082;BME280;33066;49.296;14.470;2024-01-15T11:41:28;95257.63;;;6.56;32.00
47082;BME280;33066;49.296;14.470;2024-01-15T11:43:54;95254.96;;;6.58;32.48
47082;BME280;33066;49.296;14.470;2024-01-15T11:46:19;95255.40;;;6.41;32.52
47082;BME280;33066;49.296;14.470;2024-01-15T11:48:45;95255.92;;;6.23;32.41
47082;BME280;33066;49.296;14.470;2024-01-15T11:51:12;95250.31;;;6.34;32.71
47082;BME280;33066;49.296;14.470;2024-01-15T11:53:43;95259.31;;;6.18;32.83
47082;BME280;33066;49.296;14.470;2024-01-15T11:56:02;95257.79;;;6.18;32.86
47082;BME280;33066;49.296;14.470;2024-01-15T11:58:27;95256.08;;;5.92;33.31
47082;BME280;33066;49.296;14.470;2024-01-15T12:00:53;95261.26;;;5.79;34.26
47082;BME280;33066;49.296;14.470;2024-01-15T12:03:17;95263.84;;;5.31;35.34
47082;BME280;33066;49.296;14.470;2024-01-15T12:05:43;95275.16;;;5.47;36.18
47082;BME280;33066;49.296;14.470;2024-01-15T12:08:08;95264.44;;;4.83;36.39
47082;BME280;33066;49.296;14.470;2024-01-15T12:10:34;95261.30;;;4.85;36.14
47082;BME280;33066;49.296;14.470;2024-01-15T12:13:00;95257.07;;;5.27;36.19
47082;BME280;33066;49.296;14.470;2024-01-15T12:15:26;95255.16;;;4.91;35.91
47082;BME280;33066;49.296;14.470;2024-01-15T12:17:51;95244.30;;;5.13;35.68
47082;BME280;33066;49.296;14.470;2024-01-15T12:20:17;95249.23;;;5.33;35.39
47082;BME280;33066;49.296;14.470;2024-01-15T12:22:41;95244.95;;;5.06;35.43
47082;BME280;33066;49.296;14.470;2024-01-15T12:25:08;95255.79;;;4.89;35.33
47082;BME280;33066;49.296;14.470;2024-01-15T12:27:34;95248.18;;;5.18;35.40
47082;BME280;33066;49.296;14.470;2024-01-15T12:29:58;95243.09;;;5.38;35.25
47082;BME280;33066;49.296;14.470;2024-01-15T12:32:25;95247.04;;;5.39;35.09
47082;BME280;33066;49.296;14.470;2024-01-15T12:34:49;95249.16;;;5.70;34.70
47082;BME280;33066;49.296;14.470;2024-01-15T12:37:15;95248.47;;;5.52;35.00
47082;BME280;33066;49.296;14.470;2024-01-15T12:39:43;95252.01;;;5.13;34.90
47082;BME280;33066;49.296;14.470;2024-01-15T12:42:05;95252.37;;;5.38;34.93
47082;BME280;33066;49.296;14.470;2024-01-15T12:44:31;95259.81;;;5.56;35.08
47082;BME280;33066;49.296;14.470;2024-01-15T12:46:57;95251.02;;;5.35;35.12
47082;BME280;33066;49.296;14.470;2024-01-15T12:49:24;95250.15;;;5.15;34.97
47082;BME280;33066;49.296;14.470;2024-01-15T12:51:52;95241.03;;;5.10;35.08
47082;BME280;33066;49.296;14.470;2024-01-15T12:54:12;95239.52;;;5.14;34.92
47082;BME280;33066;49.296;14.470;2024-01-15T12:56:37;95246.44;;;5.11;35.30